Time;durP1;ratioP1;P1;durP2;ratioP2;P2;SDS_P1;SDS_P2;PMS_P1;PMS_P2;Temp;Humidity;BMP_temperature;BMP_pressure;BME280_temperature;BME280_humidity;BME280_pressure;Samples;Min_cycle;Max_cycle;Signal;HPM_P1;HPM_P2
2023/12/31 00:01:19;;;;;;;0.20;0.20;;;;;;;4.73;100.00;95789.44;6167715;23;20347;-76
2023/12/31 00:04:05;;;;;;;0.20;0.20;;;;;;;4.65;100.00;95779.16;6170035;23;20257;-75
2023/12/31 00:06:53;;;;;;;0.25;0.25;;;;;;;4.66;100.00;95784.25;6168525;23;20024;-76
2023/12/31 00:09:41;;;;;;;0.20;0.20;;;;;;;4.67;100.00;95779.75;6146486;23;20025;-75
2023/12/31 00:12:27;;;;;;;0.20;0.20;;;;;;;4.66;100.00;95781.59;6168541;23;20091;-75
2023/12/31 00:15:13;;;;;;;0.20;0.20;;;;;;;4.54;100.00;95778.13;6168817;23;20602;-75
2023/12/31 00:17:59;;;;;;;0.20;0.20;;;;;;;4.51;100.00;95775.91;6168222;23;20036;-75
2023/12/31 00:20:45;;;;;;;0.30;0.30;;;;;;;4.46;100.00;95768.66;6167539;23;20035;-76
2023/12/31 00:23:31;;;;;;;0.30;0.30;;;;;;;4.56;100.00;95770.75;6168460;23;20303;-76
2023/12/31 00:26:17;;;;;;;0.28;0.28;;;;;;;4.57;100.00;95777.66;6169256;23;20017;-76
2023/12/31 00:29:03;;;;;;;0.20;0.20;;;;;;;4.52;100.00;95768.78;6144314;23;20024;-77
2023/12/31 00:31:49;;;;;;;0.20;0.20;;;;;;;4.44;100.00;95764.63;6146184;23;20349;-77
2023/12/31 00:34:34;;;;;;;0.20;0.20;;;;;;;4.39;100.00;95751.25;6146956;23;20021;-77
2023/12/31 00:37:20;;;;;;;0.20;0.20;;;;;;;4.35;100.00;95737.63;6145276;23;20456;-77
2023/12/31 00:40:07;;;;;;;0.20;0.20;;;;;;;4.29;100.00;95740.41;6168028;23;20029;-76
2023/12/31 00:42:53;;;;;;;0.30;0.30;;;;;;;4.23;100.00;95736.00;6145943;23;20028;-76
2023/12/31 00:45:39;;;;;;;0.30;0.30;;;;;;;4.14;100.00;95711.69;6168558;23;20025;-75
2023/12/31 00:48:24;;;;;;;0.20;0.20;;;;;;;4.07;100.00;95717.06;6146517;23;20021;-75
2023/12/31 00:51:10;;;;;;;0.20;0.20;;;;;;;4.02;100.00;95714.28;6145034;23;20049;-75
2023/12/31 00:53:56;;;;;;;0.30;0.30;;;;;;;4.01;100.00;95703.91;6169051;23;20068;-76
2023/12/31 00:56:42;;;;;;;0.20;0.20;;;;;;;4.05;100.00;95699.81;6145741;23;20053;-75
2023/12/31 00:59:28;;;;;;;0.30;0.30;;;;;;;4.03;100.00;95709.78;6146218;23;20029;-77
2023/12/31 01:02:14;;;;;;;0.20;0.20;;;;;;;4.00;100.00;95707.59;6167043;23;20048;-74
2023/12/31 01:05:00;;;;;;;0.20;0.20;;;;;;;3.99;100.00;95709.44;6145638;23;20184;-75
2023/12/31 01:07:46;;;;;;;0.20;0.20;;;;;;;3.91;100.00;95699.16;6146345;23;20478;-77
2023/12/31 01:10:32;;;;;;;0.20;0.20;;;;;;;3.98;100.00;95697.25;6170076;23;20124;-75
2023/12/31 01:13:17;;;;;;;0.20;0.20;;;;;;;3.99;100.00;95698.84;6145249;23;20380;-75
2023/12/31 01:16:04;;;;;;;0.20;0.20;;;;;;;3.94;100.00;95696.06;6144882;23;20021;-75
2023/12/31 01:18:50;;;;;;;0.30;0.30;;;;;;;3.91;100.00;95691.22;6167119;23;20025;-75
2023/12/31 01:21:35;;;;;;;0.25;0.25;;;;;;;3.83;100.00;95680.97;6167499;23;20043;-75
2023/12/31 01:24:21;;;;;;;0.20;0.20;;;;;;;3.86;100.00;95670.72;6144913;23;20075;-77
2023/12/31 01:27:07;;;;;;;0.20;0.20;;;;;;;3.84;100.00;95658.75;6169262;23;20274;-76
2023/12/31 01:29:53;;;;;;;0.20;0.20;;;;;;;3.83;100.00;95657.13;6168373;23;20028;-78
2023/12/31 01:32:39;;;;;;;0.20;0.20;;;;;;;3.83;100.00;95662.44;6144138;23;20025;-75
2023/12/31 01:35:25;;;;;;;0.20;0.20;;;;;;;3.78;100.00;95647.22;6147386;23;20594;-75
2023/12/31 01:38:11;;;;;;;0.20;0.20;;;;;;;3.73;100.00;95651.56;6144675;23;20463;-75
2023/12/31 01:40:57;;;;;;;0.30;0.30;;;;;;;3.69;100.00;95637.19;6145453;23;20542;-75
2023/12/31 01:43:43;;;;;;;0.17;0.17;;;;;;;3.68;100.00;95630.28;6168696;23;20024;-75
2023/12/31 01:46:31;;;;;;;0.20;0.20;;;;;;;3.68;100.00;95638.22;6146915;23;20048;-75
2023/12/31 01:49:17;;;;;;;0.20;0.20;;;;;;;3.69;100.00;95629.25;6124958;23;20025;-75
2023/12/31 01:52:04;;;;;;;0.20;0.20;;;;;;;3.66;100.00;95625.22;6166823;23;20112;-75
2023/12/31 01:54:54;;;;;;;0.20;0.20;;;;;;;3.59;100.00;95612.06;6167106;23;20021;-74
2023/12/31 01:57:41;;;;;;;0.20;0.20;;;;;;;3.60;100.00;95620.81;6166153;23;20503;-75
2023/12/31 02:00:27;;;;;;;0.10;0.10;;;;;;;3.59;100.00;95616.56;6168410;23;20029;-76
2023/12/31 02:03:15;;;;;;;0.20;0.20;;;;;;;3.56;100.00;95607.22;6143586;23;20044;-75
2023/12/31 02:06:01;;;;;;;0.20;0.20;;;;;;;3.48;100.00;95601.44;6169115;23;20025;-75
2023/12/31 02:08:47;;;;;;;0.20;0.20;;;;;;;3.46;100.00;95596.38;6167167;23;20032;-77
2023/12/31 02:11:34;;;;;;;0.20;0.20;;;;;;;3.49;100.00;95593.28;6168218;23;20021;-74
2023/12/31 02:14:20;;;;;;;0.20;0.20;;;;;;;3.46;100.00;95591.09;6146208;23;20048;-76
2023/12/31 02:17:06;;;;;;;0.20;0.20;;;;;;;3.40;100.00;95597.28;6167650;23;20476;-76
2023/12/31 02:19:52;;;;;;;0.20;0.20;;;;;;;3.42;100.00;95594.41;6166255;23;20027;-77
2023/12/31 02:22:38;;;;;;;0.28;0.28;;;;;;;3.41;100.00;95587.50;6165669;23;20099;-75
2023/12/31 02:25:27;;;;;;;0.20;0.20;;;;;;;3.43;100.00;95577.53;6167732;23;20104;-76
2023/12/31 02:28:14;;;;;;;0.13;0.13;;;;;;;3.43;100.00;95577.53;6168788;23;20019;-75
2023/12/31 02:30:59;;;;;;;0.20;0.20;;;;;;;3.43;100.00;95567.75;6125677;23;20025;-75
2023/12/31 02:33:45;;;;;;;0.10;0.10;;;;;;;3.39;100.00;95568.41;6145391;23;20108;-77
2023/12/31 02:36:31;;;;;;;0.20;0.20;;;;;;;3.36;100.00;95556.44;6169188;23;20068;-74
2023/12/31 02:39:17;;;;;;;0.20;0.20;;;;;;;3.35;100.00;95539.78;6145189;23;20112;-76
2023/12/31 02:42:03;;;;;;;0.20;0.20;;;;;;;3.34;100.00;95521.47;6143718;23;20025;-75
2023/12/31 02:44:49;;;;;;;0.20;0.20;;;;;;;3.33;100.00;95509.28;6144043;23;20025;-77
2023/12/31 02:47:35;;;;;;;0.20;0.20;;;;;;;3.29;100.00;95522.16;6167578;23;20055;-75
2023/12/31 02:50:21;;;;;;;0.20;0.20;;;;;;;3.24;100.00;95523.84;6144058;23;20025;-74
2023/12/31 02:53:07;;;;;;;0.10;0.10;;;;;;;3.23;100.00;95509.03;6168113;23;20467;-74
2023/12/31 02:55:53;;;;;;;0.20;0.20;;;;;;;3.21;100.00;95503.16;6145066;23;20095;-76
2023/12/31 02:58:38;;;;;;;0.10;0.10;;;;;;;3.19;100.00;95500.75;6145108;23;20364;-76
2023/12/31 03:01:24;;;;;;;0.20;0.20;;;;;;;3.17;100.00;95509.91;6143707;23;20385;-77
2023/12/31 03:04:10;;;;;;;0.20;0.20;;;;;;;3.21;100.00;95496.03;6165855;23;20021;-75
2023/12/31 03:06:56;;;;;;;0.20;0.20;;;;;;;3.25;100.00;95499.03;6165183;23;20021;-76
2023/12/31 03:09:42;;;;;;;0.20;0.20;;;;;;;3.22;100.00;95483.63;6145980;23;20429;-76
2023/12/31 03:12:28;;;;;;;0.20;0.20;;;;;;;3.27;100.00;95483.75;6144499;23;20100;-74
2023/12/31 03:15:14;;;;;;;0.20;0.20;;;;;;;3.24;100.00;95460.41;6145851;23;20127;-74
2023/12/31 03:18:00;;;;;;;0.25;0.25;;;;;;;3.18;100.00;95454.16;6145607;23;20025;-75
2023/12/31 03:20:45;;;;;;;0.20;0.20;;;;;;;3.19;100.00;95458.44;6169460;23;20033;-76
2023/12/31 03:23:31;;;;;;;0.20;0.20;;;;;;;3.24;100.00;95461.19;6143308;23;20352;-75
2023/12/31 03:26:17;;;;;;;0.15;0.15;;;;;;;3.22;100.00;95449.25;6145088;23;20025;-74
2023/12/31 03:29:03;;;;;;;0.20;0.20;;;;;;;3.27;100.00;95449.38;6143943;23;20021;-74
2023/12/31 03:31:49;;;;;;;0.17;0.17;;;;;;;3.32;100.00;95438.91;6124540;23;20060;-76
2023/12/31 03:34:35;;;;;;;0.20;0.20;;;;;;;3.33;100.00;95446.63;6146451;23;20028;-74
2023/12/31 03:37:20;;;;;;;0.20;0.20;;;;;;;3.34;100.00;95442.94;6167601;23;20495;-75
2023/12/31 03:40:07;;;;;;;0.20;0.20;;;;;;;3.39;100.00;95444.09;6165959;23;20029;-74
2023/12/31 03:42:55;;;;;;;0.20;0.20;;;;;;;3.41;100.00;95437.53;6168811;23;20045;-74
2023/12/31 03:45:41;;;;;;;0.10;0.10;;;;;;;3.39;100.00;95436.16;6148401;23;20017;-74
2023/12/31 03:48:27;;;;;;;0.15;0.15;;;;;;;3.42;100.00;95444.44;6168011;23;20086;-75
2023/12/31 03:51:14;;;;;;;0.20;0.20;;;;;;;3.42;100.00;95433.06;6145520;23;20017;-74
2023/12/31 03:54:05;;;;;;;0.20;0.20;;;;;;;3.42;100.00;95430.41;6168413;23;20021;-77
2023/12/31 03:56:51;;;;;;;0.10;0.10;;;;;;;3.48;100.00;95425.03;6147451;23;20158;-75
2023/12/31 03:59:37;;;;;;;0.20;0.20;;;;;;;3.43;100.00;95410.91;6168112;23;20219;-74
2023/12/31 04:02:23;;;;;;;0.20;0.20;;;;;;;3.44;100.00;95407.22;6168203;23;20029;-76
2023/12/31 04:05:11;;;;;;;0.10;0.10;;;;;;;3.52;100.00;95405.03;6167382;23;20021;-74
2023/12/31 04:07:57;;;;;;;0.20;0.20;;;;;;;3.55;100.00;95404.56;6167411;23;20021;-74
2023/12/31 04:10:43;;;;;;;0.20;0.20;;;;;;;3.59;100.00;95403.06;6169087;23;20012;-76
2023/12/31 04:13:29;;;;;;;0.20;0.20;;;;;;;3.66;100.00;95392.38;6127067;23;20100;-75
2023/12/31 04:16:15;;;;;;;0.13;0.13;;;;;;;3.66;100.00;95380.97;6169169;23;20041;-75
2023/12/31 04:19:01;;;;;;;0.20;0.20;;;;;;;3.59;100.00;95373.97;6169990;23;20262;-74
2023/12/31 04:21:47;;;;;;;0.20;0.20;;;;;;;3.54;100.00;95367.75;6169210;23;20083;-74
2023/12/31 04:24:33;;;;;;;0.20;0.20;;;;;;;3.51;100.00;95352.34;6168227;23;20017;-75
2023/12/31 04:27:19;;;;;;;0.20;0.20;;;;;;;3.49;100.00;95339.34;6168938;23;20032;-75
2023/12/31 04:30:06;;;;;;;0.20;0.20;;;;;;;3.50;100.00;95335.69;6167321;23;20696;-75
2023/12/31 04:32:53;;;;;;;0.10;0.10;;;;;;;3.52;100.00;95317.75;6169739;23;20028;-75
2023/12/31 04:35:41;;;;;;;0.20;0.20;;;;;;;3.53;100.00;95314.06;6168210;23;20075;-75
2023/12/31 04:38:27;;;;;;;0.28;0.28;;;;;;;3.58;100.00;95305.41;6167730;23;20021;-74
2023/12/31 04:41:21;;;;;;;0.20;0.20;;;;;;;3.61;100.00;95302.31;6149529;23;20031;-74
2023/12/31 04:44:07;;;;;;;0.10;0.10;;;;;;;3.66;100.00;95302.44;6147344;23;20017;-75
2023/12/31 04:46:54;;;;;;;0.20;0.20;;;;;;;3.69;100.00;95287.91;6146653;23;20474;-74
2023/12/31 04:49:40;;;;;;;0.20;0.20;;;;;;;3.70;100.00;95286.88;6125577;23;20332;-77
2023/12/31 04:52:26;;;;;;;0.20;0.20;;;;;;;3.62;100.00;95264.22;6148518;23;20071;-74
2023/12/31 04:55:13;;;;;;;0.20;0.20;;;;;;;3.64;100.00;95289.41;6168866;23;20032;-74
2023/12/31 04:57:59;;;;;;;0.20;0.20;;;;;;;3.57;100.00;95299.31;6147071;23;20025;-75
2023/12/31 05:00:46;;;;;;;0.20;0.20;;;;;;;3.57;100.00;95278.16;6128408;23;20025;-77
2023/12/31 05:03:31;;;;;;;0.20;0.20;;;;;;;3.51;100.00;95287.03;6170173;23;20040;-76
2023/12/31 05:06:17;;;;;;;0.10;0.10;;;;;;;3.53;100.00;95277.03;6171488;23;20048;-74
2023/12/31 05:09:03;;;;;;;0.20;0.20;;;;;;;3.49;100.00;95285.63;6171231;23;20026;-75
2023/12/31 05:11:49;;;;;;;0.20;0.20;;;;;;;3.55;100.00;95280.22;6172195;23;20021;-75
2023/12/31 05:14:35;;;;;;;0.20;0.20;;;;;;;3.56;100.00;95278.38;6171702;23;20096;-74
2023/12/31 05:17:23;;;;;;;0.10;0.10;;;;;;;3.56;100.00;95260.66;6172437;23;20107;-74
2023/12/31 05:20:09;;;;;;;0.20;0.20;;;;;;;3.55;100.00;95266.19;6149950;23;20025;-75
2023/12/31 05:22:55;;;;;;;0.20;0.20;;;;;;;3.52;100.00;95264.84;6169892;23;20024;-75
2023/12/31 05:25:41;;;;;;;0.10;0.10;;;;;;;3.53;100.00;95252.41;6150313;23;20352;-75
2023/12/31 05:28:27;;;;;;;0.20;0.20;;;;;;;3.49;100.00;95254.69;6170545;23;20216;-75
2023/12/31 05:31:13;;;;;;;0.20;0.20;;;;;;;3.47;100.00;95262.06;6168993;23;20032;-75
2023/12/31 05:33:59;;;;;;;0.20;0.20;;;;;;;3.48;100.00;95254.94;6172787;23;20527;-75
2023/12/31 05:36:44;;;;;;;0.20;0.20;;;;;;;3.43;100.00;95254.84;6172648;23;20021;-76
2023/12/31 05:39:31;;;;;;;0.25;0.25;;;;;;;3.48;100.00;95258.38;6168099;23;20043;-77
2023/12/31 05:42:16;;;;;;;0.20;0.20;;;;;;;3.48;100.00;95236.44;6171350;23;20025;-76
2023/12/31 05:45:04;;;;;;;0.20;0.20;;;;;;;3.49;100.00;95253.91;6171742;23;20029;-75
2023/12/31 05:47:50;;;;;;;0.20;0.20;;;;;;;3.50;100.00;95239.63;6149388;23;20021;-77
2023/12/31 05:50:36;;;;;;;0.20;0.20;;;;;;;3.50;100.00;95251.03;6169913;23;20056;-76
2023/12/31 05:53:22;;;;;;;0.20;0.20;;;;;;;3.51;100.00;95238.63;6170790;23;20162;-75
2023/12/31 05:56:08;;;;;;;0.20;0.20;;;;;;;3.56;100.00;95236.88;6170518;23;20032;-75
2023/12/31 05:58:53;;;;;;;0.20;0.20;;;;;;;3.52;100.00;95214.59;6147650;23;20017;-75
2023/12/31 06:01:39;;;;;;;0.20;0.20;;;;;;;3.49;100.00;95220.31;6171791;23;20471;-76
2023/12/31 06:04:25;;;;;;;0.20;0.20;;;;;;;3.55;100.00;95227.31;6172150;23;20049;-75
2023/12/31 06:07:11;;;;;;;0.20;0.20;;;;;;;3.55;100.00;95213.28;6173072;23;20021;-75
2023/12/31 06:09:58;;;;;;;0.20;0.20;;;;;;;3.57;100.00;95221.78;6170264;23;20025;-75
2023/12/31 06:12:43;;;;;;;0.10;0.10;;;;;;;3.63;100.00;95223.50;6172988;23;20029;-75
2023/12/31 06:15:30;;;;;;;0.20;0.20;;;;;;;3.65;100.00;95221.44;6172016;23;20108;-76
2023/12/31 06:18:16;;;;;;;0.20;0.20;;;;;;;3.67;100.00;95219.38;6170598;23;20025;-76
2023/12/31 06:21:04;;;;;;;0.20;0.20;;;;;;;3.71;100.00;95224.97;6170153;23;20056;-75
2023/12/31 06:23:51;;;;;;;0.22;0.22;;;;;;;3.74;100.00;95213.94;6150123;23;20047;-75
2023/12/31 06:26:37;;;;;;;0.10;0.10;;;;;;;3.80;100.00;95213.78;6170927;23;20021;-74
2023/12/31 06:29:23;;;;;;;0.20;0.20;;;;;;;3.79;100.00;95224.59;6172018;23;20052;-77
2023/12/31 06:32:09;;;;;;;0.17;0.17;;;;;;;3.81;100.00;95231.28;6172632;23;20025;-76
2023/12/31 06:34:57;;;;;;;0.28;0.28;;;;;;;3.80;100.00;95219.06;6171231;23;20380;-75
2023/12/31 06:37:43;;;;;;;0.10;0.10;;;;;;;3.85;100.00;95223.66;6170787;23;20025;-76
2023/12/31 06:40:29;;;;;;;0.20;0.20;;;;;;;3.85;100.00;95221.81;6171642;23;20029;-76
2023/12/31 06:43:15;;;;;;;0.20;0.20;;;;;;;3.88;100.00;95225.84;6172832;23;20092;-77
2023/12/31 06:46:02;;;;;;;0.20;0.20;;;;;;;3.86;100.00;95210.19;6171435;23;20021;-76
2023/12/31 06:48:48;;;;;;;0.20;0.20;;;;;;;3.93;100.00;95207.41;6168054;23;20020;-76
2023/12/31 06:51:33;;;;;;;0.20;0.20;;;;;;;3.81;100.00;95196.88;6170333;23;20017;-75
2023/12/31 06:54:19;;;;;;;0.17;0.17;;;;;;;3.84;100.00;95214.94;6171027;23;20433;-77
2023/12/31 06:57:06;;;;;;;0.20;0.20;;;;;;;3.82;100.00;95201.13;6147192;23;20013;-76
2023/12/31 06:59:52;;;;;;;0.20;0.20;;;;;;;3.87;100.00;95197.78;6169693;23;20104;-75
2023/12/31 07:02:38;;;;;;;0.20;0.20;;;;;;;3.86;100.00;95198.81;6171397;23;20116;-77
2023/12/31 07:05:24;;;;;;;0.20;0.20;;;;;;;3.83;100.00;95200.09;6169201;23;20025;-76
2023/12/31 07:08:10;;;;;;;0.20;0.20;;;;;;;3.85;100.00;95195.34;6170815;23;20017;-76
2023/12/31 07:10:56;;;;;;;0.20;0.20;;;;;;;3.83;100.00;95184.22;6169867;23;20017;-77
2023/12/31 07:13:43;;;;;;;0.20;0.20;;;;;;;3.82;100.00;95181.81;6171279;23;20403;-77
2023/12/31 07:16:29;;;;;;;0.20;0.20;;;;;;;3.83;100.00;95181.56;6170292;23;20028;-75
2023/12/31 07:19:15;;;;;;;0.20;0.20;;;;;;;3.88;100.00;95189.59;6170612;23;20525;-76
2023/12/31 07:22:01;;;;;;;0.20;0.20;;;;;;;3.92;100.00;95184.63;6149465;23;20032;-76
2023/12/31 07:24:47;;;;;;;0.30;0.30;;;;;;;3.96;100.00;95195.53;6148138;23;20021;-78
2023/12/31 07:27:33;;;;;;;0.20;0.20;;;;;;;3.97;100.00;95179.44;6172739;23;20028;-78
2023/12/31 07:30:19;;;;;;;0.20;0.20;;;;;;;3.98;100.00;95173.09;6171387;23;20029;-75
2023/12/31 07:33:05;;;;;;;0.20;0.20;;;;;;;4.01;100.00;95179.75;6172733;23;20017;-78
2023/12/31 07:35:51;;;;;;;0.20;0.20;;;;;;;3.98;100.00;95198.78;6173042;23;20096;-78
2023/12/31 07:38:37;;;;;;;0.20;0.20;;;;;;;3.98;100.00;95159.88;6169891;23;20055;-77
2023/12/31 07:41:22;;;;;;;0.20;0.20;;;;;;;4.05;100.00;95178.25;6168706;23;20032;-76
2023/12/31 07:44:11;;;;;;;0.30;0.30;;;;;;;4.01;100.00;95164.69;6147805;23;20710;-76
2023/12/31 07:46:56;;;;;;;0.10;0.10;;;;;;;4.02;100.00;95168.13;6171404;23;20379;-75
2023/12/31 07:49:42;;;;;;;0.28;0.28;;;;;;;3.99;100.00;95174.72;6169636;23;20036;-76
2023/12/31 07:52:28;;;;;;;0.20;0.20;;;;;;;3.99;100.00;95163.31;6172551;23;20199;-77
2023/12/31 07:55:15;;;;;;;0.28;0.28;;;;;;;4.03;100.00;95157.28;6150190;23;20055;-77
2023/12/31 07:58:00;;;;;;;0.10;0.10;;;;;;;4.04;100.00;95166.84;6172928;23;20078;-76
2023/12/31 08:00:46;;;;;;;0.15;0.15;;;;;;;4.04;100.00;95168.69;6171155;23;20027;-76
2023/12/31 08:03:34;;;;;;;0.30;0.30;;;;;;;4.02;100.00;95157.53;6171432;23;20020;-76
2023/12/31 08:06:19;;;;;;;0.28;0.28;;;;;;;4.03;100.00;95165.22;6171805;23;20103;-77
2023/12/31 08:09:05;;;;;;;0.30;0.30;;;;;;;4.14;100.00;95151.16;6173280;23;20024;-77
2023/12/31 08:11:51;;;;;;;0.20;0.20;;;;;;;4.17;100.00;95157.78;6172228;23;20025;-78
2023/12/31 08:14:37;;;;;;;0.25;0.25;;;;;;;4.11;100.00;95154.25;6170876;23;20056;-78
2023/12/31 08:17:24;;;;;;;0.20;0.20;;;;;;;4.16;100.00;95149.06;6169607;23;20104;-77
2023/12/31 08:20:11;;;;;;;0.20;0.20;;;;;;;4.19;100.00;95143.25;6168518;23;20028;-79
2023/12/31 08:22:58;;;;;;;0.20;0.20;;;;;;;4.15;100.00;95130.75;6171711;23;20032;-77
2023/12/31 08:25:44;;;;;;;0.20;0.20;;;;;;;4.14;100.00;95131.81;6169193;23;20021;-77
2023/12/31 08:28:30;;;;;;;0.30;0.30;;;;;;;4.13;100.00;95122.25;6168565;23;20104;-77
2023/12/31 08:31:16;;;;;;;0.20;0.20;;;;;;;4.13;100.00;95120.41;6146367;23;20021;-78
2023/12/31 08:34:02;;;;;;;0.20;0.20;;;;;;;4.17;100.00;95116.22;6170634;23;20706;-77
2023/12/31 08:36:48;;;;;;;0.20;0.20;;;;;;;4.14;100.00;95107.97;6169629;23;20029;-77
2023/12/31 08:39:37;;;;;;;0.22;0.22;;;;;;;4.03;100.00;95109.66;6167862;23;20108;-77
2023/12/31 08:42:23;;;;;;;0.20;0.20;;;;;;;3.97;100.00;95109.78;6167091;23;20044;-78
2023/12/31 08:45:10;;;;;;;0.20;0.20;;;;;;;3.98;100.00;95101.63;6171298;23;20032;-77
2023/12/31 08:47:56;;;;;;;0.20;0.20;;;;;;;4.08;100.00;95099.16;6169331;23;20024;-77
2023/12/31 08:50:42;;;;;;;0.25;0.25;;;;;;;4.15;100.00;95097.16;6167692;23;20426;-76
2023/12/31 08:53:28;;;;;;;0.20;0.20;;;;;;;4.15;100.00;95097.16;6169492;23;20439;-76
2023/12/31 08:56:14;;;;;;;0.20;0.20;;;;;;;4.28;100.00;95100.50;6147269;23;20025;-76
2023/12/31 08:59:00;;;;;;;0.20;0.20;;;;;;;4.36;100.00;95108.06;6169068;23;20100;-77
2023/12/31 09:01:46;;;;;;;0.22;0.22;;;;;;;4.36;100.00;95094.81;6169250;23;20028;-76
2023/12/31 09:04:34;;;;;;;0.20;0.20;;;;;;;4.41;100.00;95108.91;6146282;23;20403;-78
2023/12/31 09:07:20;;;;;;;0.30;0.30;;;;;;;4.46;100.00;95108.19;6140652;23;20465;-77
2023/12/31 09:10:07;;;;;;;0.20;0.20;;;;;;;4.50;100.00;95101.38;6117247;23;20021;-76
2023/12/31 09:12:53;;;;;;;0.20;0.20;;;;;;;4.48;100.00;95077.78;6136502;23;20468;-77
2023/12/31 09:15:40;;;;;;;0.20;0.20;;;;;;;4.50;100.00;95084.66;6140099;23;20397;-76
2023/12/31 09:18:27;;;;;;;0.13;0.13;;;;;;;4.55;100.00;95093.50;6136787;23;20052;-76
2023/12/31 09:21:13;;;;;;;0.20;0.20;;;;;;;4.59;100.00;95094.63;6139616;23;20161;-78
2023/12/31 09:23:59;;;;;;;0.20;0.20;;;;;;;4.69;100.00;95094.75;6140907;23;20025;-78
2023/12/31 09:26:45;;;;;;;0.20;0.20;;;;;;;4.74;100.00;95081.56;6138034;23;20039;-77
2023/12/31 09:29:31;;;;;;;0.20;0.20;;;;;;;4.80;100.00;95081.63;6138277;23;20117;-76
2023/12/31 09:32:17;;;;;;;0.20;0.20;;;;;;;4.79;100.00;95088.78;6165761;23;20029;-76
2023/12/31 09:35:04;;;;;;;0.10;0.10;;;;;;;4.85;100.00;95093.13;6130989;23;20017;-78
2023/12/31 09:37:50;;;;;;;0.20;0.20;;;;;;;4.85;100.00;95095.75;6167793;23;20017;-76
2023/12/31 09:40:35;;;;;;;0.20;0.20;;;;;;;4.88;100.00;95086.50;6167862;23;20048;-76
2023/12/31 09:43:22;;;;;;;0.20;0.20;;;;;;;4.89;100.00;95083.59;6170317;23;20039;-77
2023/12/31 09:46:09;;;;;;;0.20;0.20;;;;;;;4.86;100.00;95078.00;6171764;23;20021;-76
2023/12/31 09:48:55;;;;;;;0.20;0.20;;;;;;;4.86;100.00;95085.97;6147415;23;20364;-76
2023/12/31 09:51:41;;;;;;;0.20;0.20;;;;;;;4.82;100.00;95082.97;6150303;23;20017;-77
2023/12/31 09:54:28;;;;;;;0.30;0.30;;;;;;;4.76;100.00;95078.69;6170798;23;20021;-76
2023/12/31 09:57:18;;;;;;;0.20;0.20;;;;;;;4.73;100.00;95090.56;6171677;23;20025;-76
2023/12/31 10:00:04;;;;;;;0.20;0.20;;;;;;;4.77;100.00;95075.00;6170417;23;20507;-77
2023/12/31 10:02:56;;;;;;;0.20;0.20;;;;;;;4.75;100.00;95069.13;6169470;23;20493;-76
2023/12/31 10:05:44;;;;;;;0.20;0.20;;;;;;;4.81;100.00;95069.97;6171376;23;20021;-76
2023/12/31 10:08:30;;;;;;;0.20;0.20;;;;;;;4.77;100.00;95052.97;6150062;23;20534;-77
2023/12/31 10:11:16;;;;;;;0.20;0.20;;;;;;;4.68;100.00;95053.41;6149286;23;20025;-77
2023/12/31 10:14:02;;;;;;;0.20;0.20;;;;;;;4.66;100.00;95057.34;6172746;23;20025;-76
2023/12/31 10:16:48;;;;;;;0.30;0.30;;;;;;;4.64;100.00;95052.28;6169368;23;20021;-78
2023/12/31 10:19:34;;;;;;;0.20;0.20;;;;;;;4.57;100.00;95059.59;6169806;23;20025;-76
2023/12/31 10:22:22;;;;;;;0.20;0.20;;;;;;;4.76;100.00;95046.88;6168926;23;20028;-76
2023/12/31 10:25:15;;;;;;;0.20;0.20;;;;;;;4.71;100.00;95046.81;6171050;23;20072;-75
2023/12/31 10:28:04;;;;;;;0.22;0.22;;;;;;;4.62;100.00;95056.22;6170601;23;20132;-77
2023/12/31 10:30:50;;;;;;;0.20;0.20;;;;;;;4.55;100.00;95052.97;6160617;23;20517;-77
2023/12/31 10:33:37;;;;;;;0.20;0.20;;;;;;;4.58;100.00;95052.47;6139293;23;20124;-77
2023/12/31 10:36:23;;;;;;;0.20;0.20;;;;;;;4.57;100.00;95049.00;6140530;23;20074;-75
2023/12/31 10:39:10;;;;;;;0.20;0.20;;;;;;;4.59;100.00;95040.81;6141123;23;20017;-75
2023/12/31 10:42:04;;;;;;;0.28;0.28;;;;;;;4.53;100.00;95042.63;6140669;23;20279;-77
2023/12/31 10:44:55;;;;;;;0.20;0.20;;;;;;;4.60;100.00;95034.50;6141029;23;20557;-78
2023/12/31 10:47:44;;;;;;;0.28;0.28;;;;;;;4.72;100.00;95041.25;6120236;23;20026;-77
2023/12/31 10:50:30;;;;;;;0.20;0.20;;;;;;;4.86;100.00;95030.31;6141614;23;20115;-77
2023/12/31 10:53:16;;;;;;;0.10;0.10;;;;;;;4.79;100.00;95017.22;6142068;23;20021;-78
2023/12/31 10:56:05;;;;;;;0.20;0.20;;;;;;;4.74;100.00;95033.84;6142918;23;20034;-78
2023/12/31 10:58:54;;;;;;;0.20;0.20;;;;;;;4.61;100.00;95050.13;6142270;23;20033;-78
2023/12/31 11:01:41;;;;;;;0.20;0.20;;;;;;;4.54;100.00;95023.00;6143406;23;20092;-75
2023/12/31 11:04:29;;;;;;;0.20;0.20;;;;;;;4.55;100.00;95039.72;6144222;23;20061;-74
2023/12/31 11:07:17;;;;;;;0.20;0.20;;;;;;;4.62;100.00;95027.09;6142542;23;20377;-78
2023/12/31 11:10:04;;;;;;;0.28;0.28;;;;;;;4.71;100.00;95007.06;6141677;23;20039;-78
2023/12/31 11:12:51;;;;;;;0.22;0.22;;;;;;;4.88;100.00;95009.63;6142015;23;20021;-77
2023/12/31 11:15:39;;;;;;;0.20;0.20;;;;;;;4.91;100.00;94987.97;6142046;23;20437;-76
2023/12/31 11:19:10;;;;;;;0.20;0.20;;;;;;;4.93;100.00;94993.81;6143542;23;20296;-76
2023/12/31 11:22:14;;;;;;;0.20;0.20;;;;;;;5.18;100.00;94996.72;6128600;23;20100;-77
2023/12/31 11:25:02;;;;;;;0.22;0.22;;;;;;;5.18;100.00;94975.50;6142078;23;20025;-77
2023/12/31 11:27:53;;;;;;;0.30;0.30;;;;;;;5.26;100.00;94976.91;6140826;23;20022;-75
2023/12/31 11:30:55;;;;;;;0.20;0.20;;;;;;;5.28;100.00;94980.09;6139923;23;20370;-75
2023/12/31 11:33:41;;;;;;;0.30;0.30;;;;;;;5.27;100.00;94976.66;6140450;23;20461;-77
2023/12/31 11:36:27;;;;;;;0.20;0.20;;;;;;;5.29;100.00;95010.88;6141903;23;20029;-76
2023/12/31 11:39:16;;;;;;;0.30;0.30;;;;;;;5.38;100.00;95008.59;6141442;23;20471;-76
2023/12/31 11:42:11;;;;;;;0.20;0.20;;;;;;;5.37;100.00;95004.31;6096449;23;20176;-76
2023/12/31 11:44:57;;;;;;;0.20;0.20;;;;;;;5.38;100.00;94998.00;6139576;23;20025;-75
2023/12/31 11:47:45;;;;;;;0.20;0.20;;;;;;;5.47;100.00;94993.81;6120132;23;20021;-76
2023/12/31 11:50:31;;;;;;;0.25;0.25;;;;;;;5.58;100.00;94998.16;6110837;23;20100;-76
2023/12/31 11:53:17;;;;;;;0.20;0.20;;;;;;;5.62;100.00;94998.47;6137261;23;20024;-77
2023/12/31 11:56:03;;;;;;;0.20;0.20;;;;;;;5.68;100.00;95011.53;6140238;23;20135;-77
2023/12/31 11:58:50;;;;;;;0.20;0.20;;;;;;;5.72;100.00;94999.34;6140557;23;20022;-75
2023/12/31 12:01:37;;;;;;;0.20;0.20;;;;;;;5.70;100.00;95006.75;6137642;23;20718;-76
2023/12/31 12:04:23;;;;;;;0.20;0.20;;;;;;;5.71;100.00;95000.41;6141823;23;20022;-78
2023/12/31 12:07:09;;;;;;;0.15;0.15;;;;;;;5.75;100.00;94990.06;6143981;23;20029;-77
2023/12/31 12:09:55;;;;;;;0.20;0.20;;;;;;;5.70;100.00;94988.19;6141062;23;20025;-76
2023/12/31 12:12:42;;;;;;;0.20;0.20;;;;;;;5.72;100.00;94977.31;6120658;23;20152;-76
2023/12/31 12:15:35;;;;;;;0.20;0.20;;;;;;;5.76;100.00;94970.47;6143806;23;20091;-76
2023/12/31 12:18:21;;;;;;;0.20;0.20;;;;;;;5.70;100.00;94982.06;6141479;23;20021;-77
2023/12/31 12:21:07;;;;;;;0.20;0.20;;;;;;;5.65;100.00;94990.78;6121349;23;20040;-77
2023/12/31 12:23:54;;;;;;;0.20;0.20;;;;;;;5.72;100.00;94980.75;6140398;23;20028;-76
2023/12/31 12:26:41;;;;;;;0.20;0.20;;;;;;;5.66;100.00;94995.03;6138843;23;20096;-77
2023/12/31 12:29:27;;;;;;;0.20;0.20;;;;;;;5.77;100.00;94977.38;6139728;23;20150;-76
2023/12/31 12:32:17;;;;;;;0.20;0.20;;;;;;;5.71;100.00;94984.47;6120294;23;20021;-78
2023/12/31 12:35:06;;;;;;;0.25;0.25;;;;;;;5.74;100.00;94978.66;6139610;23;20021;-78
2023/12/31 12:37:52;;;;;;;0.20;0.20;;;;;;;5.76;100.00;94971.25;6139745;23;20088;-79
2023/12/31 12:40:38;;;;;;;0.20;0.20;;;;;;;5.74;100.00;94980.50;6140963;23;20087;-78
2023/12/31 12:43:30;;;;;;;0.20;0.20;;;;;;;5.71;100.00;94984.47;6139783;23;20025;-77
2023/12/31 12:46:15;;;;;;;0.20;0.20;;;;;;;5.73;100.00;94985.00;6119922;23;20060;-78
2023/12/31 12:49:03;;;;;;;0.28;0.28;;;;;;;5.73;100.00;94987.66;6140547;23;20673;-78
2023/12/31 12:51:49;;;;;;;0.20;0.20;;;;;;;5.88;100.00;95000.25;6141774;23;20559;-76
2023/12/31 12:54:36;;;;;;;0.20;0.20;;;;;;;5.83;100.00;95003.66;6119950;23;20758;-76
2023/12/31 12:57:22;;;;;;;0.20;0.20;;;;;;;5.75;100.00;95003.34;6139943;23;20069;-76
2023/12/31 13:00:09;;;;;;;0.20;0.20;;;;;;;5.80;100.00;95012.16;6142535;23;20026;-77
2023/12/31 13:02:55;;;;;;;0.30;0.30;;;;;;;5.83;100.00;95014.28;6140794;23;20783;-78
2023/12/31 13:05:41;;;;;;;0.20;0.20;;;;;;;5.81;100.00;95008.44;6139446;23;20144;-77